Terminal Aerodrome Forecast
Issued by NWS

Home | Current Version | Previous Version | Text Only | Print | Product List | Glossary On
Versions: 1 2 3 4 5 6 7 8 9 10 11 12
000
FTUS45 KRIW 281100
TAFRKS
TAF
KRKS 281135Z 2812/2912 22008KT P6SM VCSH BKN050
     FM281800 27015KT P6SM SCT030 BKN050
     FM290200 24010KT P6SM SCT030 BKN050
     FM290800 06005KT P6SM SCT030=

USA.gov is the U.S. government's official web portal to all federal, state and local government web resources and services.